sensor_id;sensor_type;location;lat;lon;timestamp;pressure;altitude;pressure_sealevel;temperature;humidity
19508;BME280;40157;42.566;27.526;2022-12-18T00:00:58;101655.84;;;16.09;81.13
19508;BME280;40157;42.566;27.526;2022-12-18T00:02:58;101664.69;;;16.11;81.69
19508;BME280;40157;42.566;27.526;2022-12-18T00:04:58;101668.19;;;16.12;81.78
19508;BME280;40157;42.566;27.526;2022-12-18T00:06:59;101677.94;;;16.16;82.12
19508;BME280;40157;42.566;27.526;2022-12-18T00:09:01;101677.94;;;16.16;81.88
19508;BME280;40157;42.566;27.526;2022-12-18T00:11:10;101656.66;;;16.03;81.58
19508;BME280;40157;42.566;27.526;2022-12-18T00:13:12;101680.56;;;16.13;81.68
19508;BME280;40157;42.566;27.526;2022-12-18T00:15:12;101656.63;;;16.00;81.82
19508;BME280;40157;42.566;27.526;2022-12-18T00:17:13;101689.41;;;16.15;82.03
19508;BME280;40157;42.566;27.526;2022-12-18T00:19:14;101688.47;;;16.09;80.53
19508;BME280;40157;42.566;27.526;2022-12-18T00:21:15;101707.81;;;16.02;80.28
19508;BME280;40157;42.566;27.526;2022-12-18T00:23:15;101711.13;;;15.83;79.01
19508;BME280;40157;42.566;27.526;2022-12-18T00:25:16;101721.56;;;15.73;77.73
19508;BME280;40157;42.566;27.526;2022-12-18T00:27:16;101693.22;;;15.57;77.34
19508;BME280;40157;42.566;27.526;2022-12-18T00:29:16;101715.31;;;15.67;78.80
19508;BME280;40157;42.566;27.526;2022-12-18T00:31:20;101696.56;;;15.42;80.13
19508;BME280;40157;42.566;27.526;2022-12-18T00:33:21;101710.75;;;15.49;80.09
19508;BME280;40157;42.566;27.526;2022-12-18T00:35:21;101722.41;;;15.68;79.38
19508;BME280;40157;42.566;27.526;2022-12-18T00:37:22;101673.75;;;15.49;79.12
19508;BME280;40157;42.566;27.526;2022-12-18T00:39:22;101695.06;;;15.66;79.36
19508;BME280;40157;42.566;27.526;2022-12-18T00:41:24;101715.56;;;15.82;79.80
19508;BME280;40157;42.566;27.526;2022-12-18T00:43:43;101716.50;;;15.89;79.81
19508;BME280;40157;42.566;27.526;2022-12-18T00:45:43;101732.41;;;15.95;78.62
19508;BME280;40157;42.566;27.526;2022-12-18T00:47:44;101711.06;;;15.77;78.02
19508;BME280;40157;42.566;27.526;2022-12-18T00:49:45;101739.34;;;15.81;76.38
19508;BME280;40157;42.566;27.526;2022-12-18T00:51:45;101731.38;;;15.79;74.28
19508;BME280;40157;42.566;27.526;2022-12-18T00:53:46;101749.09;;;15.88;73.37
19508;BME280;40157;42.566;27.526;2022-12-18T00:55:46;101762.31;;;15.88;73.16
19508;BME280;40157;42.566;27.526;2022-12-18T00:57:47;101759.63;;;15.83;73.22
19508;BME280;40157;42.566;27.526;2022-12-18T00:59:48;101760.50;;;15.81;74.35
19508;BME280;40157;42.566;27.526;2022-12-18T01:01:48;101747.13;;;15.73;75.55
19508;BME280;40157;42.566;27.526;2022-12-18T01:03:48;101716.00;;;15.46;77.17
19508;BME280;40157;42.566;27.526;2022-12-18T01:05:49;101746.78;;;15.45;78.60
19508;BME280;40157;42.566;27.526;2022-12-18T01:07:49;101723.81;;;15.38;79.28
19508;BME280;40157;42.566;27.526;2022-12-18T01:09:50;101709.69;;;15.34;79.60
19508;BME280;40157;42.566;27.526;2022-12-18T01:11:50;101669.00;;;15.22;79.73
19508;BME280;40157;42.566;27.526;2022-12-18T01:13:52;101713.53;;;15.63;79.73
19508;BME280;40157;42.566;27.526;2022-12-18T01:15:53;101727.72;;;15.69;79.98
19508;BME280;40157;42.566;27.526;2022-12-18T01:17:53;101712.84;;;15.78;80.31
19508;BME280;40157;42.566;27.526;2022-12-18T01:19:54;101716.47;;;15.86;80.20
19508;BME280;40157;42.566;27.526;2022-12-18T01:21:54;101693.47;;;15.80;79.30
19508;BME280;40157;42.566;27.526;2022-12-18T01:23:56;101674.84;;;15.69;79.37
19508;BME280;40157;42.566;27.526;2022-12-18T01:25:56;101722.69;;;15.93;78.99
19508;BME280;40157;42.566;27.526;2022-12-18T01:27:58;101721.78;;;15.89;78.61
19508;BME280;40157;42.566;27.526;2022-12-18T01:29:58;101743.06;;;16.01;78.44
19508;BME280;40157;42.566;27.526;2022-12-18T01:31:59;101714.72;;;15.88;78.36
19508;BME280;40157;42.566;27.526;2022-12-18T01:34:04;101743.97;;;16.05;78.50
19508;BME280;40157;42.566;27.526;2022-12-18T01:36:05;101736.94;;;16.08;78.73
19508;BME280;40157;42.566;27.526;2022-12-18T01:38:05;101719.19;;;15.97;78.86
19508;BME280;40157;42.566;27.526;2022-12-18T01:40:06;101745.78;;;16.07;78.71
19508;BME280;40157;42.566;27.526;2022-12-18T01:42:14;101759.91;;;16.09;79.11
19508;BME280;40157;42.566;27.526;2022-12-18T01:46:52;101768.63;;;15.99;79.81
19508;BME280;40157;42.566;27.526;2022-12-18T01:49:00;101778.31;;;15.97;80.46
19508;BME280;40157;42.566;27.526;2022-12-18T01:51:01;101773.88;;;15.98;81.00
19508;BME280;40157;42.566;27.526;2022-12-18T01:53:06;101775.66;;;16.00;81.24
19508;BME280;40157;42.566;27.526;2022-12-18T01:55:09;101794.22;;;16.03;81.68
19508;BME280;40157;42.566;27.526;2022-12-18T01:57:10;101781.81;;;15.96;81.31
19508;BME280;40157;42.566;27.526;2022-12-18T01:59:11;101773.75;;;15.84;78.70
19508;BME280;40157;42.566;27.526;2022-12-18T02:01:12;101787.81;;;15.81;77.47
19508;BME280;40157;42.566;27.526;2022-12-18T02:03:12;101771.78;;;15.69;77.68
19508;BME280;40157;42.566;27.526;2022-12-18T02:05:16;101770.94;;;15.73;77.19
19508;BME280;40157;42.566;27.526;2022-12-18T02:09:31;101782.38;;;15.72;76.64
19508;BME280;40157;42.566;27.526;2022-12-18T02:18:36;101778.59;;;15.51;75.75
19508;BME280;40157;42.566;27.526;2022-12-18T02:28:04;101800.25;;;15.24;75.48
19508;BME280;40157;42.566;27.526;2022-12-18T02:30:07;101770.31;;;15.22;75.83
19508;BME280;40157;42.566;27.526;2022-12-18T02:32:13;101772.09;;;15.26;75.85
19508;BME280;40157;42.566;27.526;2022-12-18T02:34:16;101769.50;;;15.29;75.71
19508;BME280;40157;42.566;27.526;2022-12-18T02:36:18;101755.28;;;15.20;76.13
19508;BME280;40157;42.566;27.526;2022-12-18T02:38:20;101762.41;;;15.27;76.18
19508;BME280;40157;42.566;27.526;2022-12-18T02:40:23;101775.69;;;15.31;76.16
19508;BME280;40157;42.566;27.526;2022-12-18T02:42:24;101773.88;;;15.27;75.81
19508;BME280;40157;42.566;27.526;2022-12-18T02:44:26;101709.91;;;14.84;75.54
19508;BME280;40157;42.566;27.526;2022-12-18T02:46:36;101744.41;;;14.98;75.29
19508;BME280;40157;42.566;27.526;2022-12-18T02:48:38;101752.53;;;15.12;74.74
19508;BME280;40157;42.566;27.526;2022-12-18T02:50:48;101726.75;;;14.94;74.67
19508;BME280;40157;42.566;27.526;2022-12-18T03:02:02;101764.16;;;14.67;73.19
19508;BME280;40157;42.566;27.526;2022-12-18T03:04:16;101792.47;;;14.74;73.22
19508;BME280;40157;42.566;27.526;2022-12-18T03:06:35;101787.91;;;14.65;73.58
19508;BME280;40157;42.566;27.526;2022-12-18T03:08:42;101780.69;;;14.56;73.64
19508;BME280;40157;42.566;27.526;2022-12-18T03:11:05;101753.03;;;14.33;74.04
19508;BME280;40157;42.566;27.526;2022-12-18T03:13:10;101777.91;;;14.47;74.38
19508;BME280;40157;42.566;27.526;2022-12-18T03:15:16;101767.34;;;14.47;75.58
19508;BME280;40157;42.566;27.526;2022-12-18T03:17:21;101753.16;;;14.42;76.31
19508;BME280;40157;42.566;27.526;2022-12-18T03:19:26;101752.25;;;14.40;75.86
19508;BME280;40157;42.566;27.526;2022-12-18T03:21:49;101761.00;;;14.36;76.35
19508;BME280;40157;42.566;27.526;2022-12-18T03:23:52;101749.44;;;14.28;76.75
19508;BME280;40157;42.566;27.526;2022-12-18T03:25:56;101757.44;;;14.34;77.12
19508;BME280;40157;42.566;27.526;2022-12-18T03:27:59;101775.22;;;14.44;76.88
19508;BME280;40157;42.566;27.526;2022-12-18T03:30:07;101790.22;;;14.48;76.25
19508;BME280;40157;42.566;27.526;2022-12-18T03:32:15;101780.44;;;14.41;75.67
19508;BME280;40157;42.566;27.526;2022-12-18T03:34:26;101778.59;;;14.37;74.64
19508;BME280;40157;42.566;27.526;2022-12-18T03:36:29;101765.34;;;14.34;74.76
19508;BME280;40157;42.566;27.526;2022-12-18T03:38:30;101807.84;;;14.49;74.28
19508;BME280;40157;42.566;27.526;2022-12-18T03:41:03;101797.28;;;14.49;73.76
19508;BME280;40157;42.566;27.526;2022-12-18T03:43:14;101810.44;;;14.46;73.47
19508;BME280;40157;42.566;27.526;2022-12-18T03:45:27;101825.56;;;14.56;73.80
19508;BME280;40157;42.566;27.526;2022-12-18T03:47:39;101825.44;;;14.50;74.24
19508;BME280;40157;42.566;27.526;2022-12-18T03:50:11;101836.13;;;14.56;74.47
19508;BME280;40157;42.566;27.526;2022-12-18T03:52:20;101848.28;;;14.48;74.13
19508;BME280;40157;42.566;27.526;2022-12-18T03:54:25;101837.56;;;14.39;73.33
19508;BME280;40157;42.566;27.526;2022-12-18T03:56:29;101857.88;;;14.43;73.66
19508;BME280;40157;42.566;27.526;2022-12-18T03:58:32;101847.16;;;14.35;74.15
19508;BME280;40157;42.566;27.526;2022-12-18T04:00:34;101853.41;;;14.39;74.46
19508;BME280;40157;42.566;27.526;2022-12-18T04:02:37;101854.41;;;14.46;74.92
19508;BME280;40157;42.566;27.526;2022-12-18T04:04:39;101830.44;;;14.35;75.17
19508;BME280;40157;42.566;27.526;2022-12-18T04:06:41;101839.22;;;14.34;75.21
19508;BME280;40157;42.566;27.526;2022-12-18T04:08:43;101884.47;;;14.55;75.48
19508;BME280;40157;42.566;27.526;2022-12-18T04:10:44;101885.25;;;14.50;75.49
19508;BME280;40157;42.566;27.526;2022-12-18T04:12:44;101864.84;;;14.39;75.61
19508;BME280;40157;42.566;27.526;2022-12-18T04:14:45;101878.00;;;14.38;75.38
19508;BME280;40157;42.566;27.526;2022-12-18T04:16:45;101883.44;;;14.46;75.29
19508;BME280;40157;42.566;27.526;2022-12-18T04:18:46;101860.31;;;14.32;75.55
19508;BME280;40157;42.566;27.526;2022-12-18T04:20:46;101883.28;;;14.38;75.61
19508;BME280;40157;42.566;27.526;2022-12-18T04:22:46;101889.78;;;14.11;75.39
19508;BME280;40157;42.566;27.526;2022-12-18T04:24:47;101896.59;;;14.00;75.85
19508;BME280;40157;42.566;27.526;2022-12-18T04:26:47;101886.91;;;14.00;76.09
19508;BME280;40157;42.566;27.526;2022-12-18T04:28:48;101903.81;;;14.10;76.18
19508;BME280;40157;42.566;27.526;2022-12-18T04:30:49;101891.38;;;14.03;76.13
19508;BME280;40157;42.566;27.526;2022-12-18T04:32:49;101867.88;;;13.71;76.59
19508;BME280;40157;42.566;27.526;2022-12-18T04:34:50;101912.34;;;13.97;76.75
19508;BME280;40157;42.566;27.526;2022-12-18T04:36:50;101870.59;;;13.76;76.51
19508;BME280;40157;42.566;27.526;2022-12-18T04:38:51;101931.09;;;14.11;76.52
19508;BME280;40157;42.566;27.526;2022-12-18T04:40:51;101939.25;;;14.23;76.29
19508;BME280;40157;42.566;27.526;2022-12-18T04:42:52;101935.75;;;14.22;76.39
19508;BME280;40157;42.566;27.526;2022-12-18T04:44:52;101927.97;;;14.30;76.39
19508;BME280;40157;42.566;27.526;2022-12-18T04:46:53;101950.22;;;14.43;76.64
19508;BME280;40157;42.566;27.526;2022-12-18T04:48:53;101950.34;;;14.49;76.82
19508;BME280;40157;42.566;27.526;2022-12-18T04:50:53;101940.66;;;14.48;77.03
19508;BME280;40157;42.566;27.526;2022-12-18T04:52:54;101899.75;;;14.26;77.34
19508;BME280;40157;42.566;27.526;2022-12-18T04:54:54;101928.25;;;14.44;77.39
19508;BME280;40157;42.566;27.526;2022-12-18T04:56:55;101962.94;;;14.61;77.67
19508;BME280;40157;42.566;27.526;2022-12-18T04:58:55;101942.47;;;14.51;77.78
19508;BME280;40157;42.566;27.526;2022-12-18T05:00:56;101977.91;;;14.64;77.91
19508;BME280;40157;42.566;27.526;2022-12-18T05:02:56;101956.56;;;14.53;78.09
19508;BME280;40157;42.566;27.526;2022-12-18T05:04:56;101975.28;;;14.64;78.15
19508;BME280;40157;42.566;27.526;2022-12-18T05:06:57;101992.09;;;14.69;78.21
19508;BME280;40157;42.566;27.526;2022-12-18T05:08:57;101994.75;;;14.69;78.60
19508;BME280;40157;42.566;27.526;2022-12-18T05:11:09;101968.00;;;14.53;78.65
19508;BME280;40157;42.566;27.526;2022-12-18T05:13:10;102006.22;;;14.69;78.57
19508;BME280;40157;42.566;27.526;2022-12-18T05:15:11;102004.41;;;14.68;78.00
19508;BME280;40157;42.566;27.526;2022-12-18T05:17:11;102018.53;;;14.70;77.68
19508;BME280;40157;42.566;27.526;2022-12-18T05:19:12;102001.50;;;14.56;77.47
19508;BME280;40157;42.566;27.526;2022-12-18T05:21:12;102023.84;;;14.72;76.79
19508;BME280;40157;42.566;27.526;2022-12-18T05:23:13;102035.38;;;14.77;75.39
19508;BME280;40157;42.566;27.526;2022-12-18T05:25:13;102013.88;;;14.58;73.69
19508;BME280;40157;42.566;27.526;2022-12-18T05:27:14;102029.69;;;14.58;72.94
19508;BME280;40157;42.566;27.526;2022-12-18T05:29:15;102055.59;;;14.75;72.79
19508;BME280;40157;42.566;27.526;2022-12-18T05:31:15;102023.53;;;14.58;72.56
19508;BME280;40157;42.566;27.526;2022-12-18T05:33:16;102057.28;;;14.71;72.08
19508;BME280;40157;42.566;27.526;2022-12-18T05:35:17;102044.72;;;14.59;71.28
19508;BME280;40157;42.566;27.526;2022-12-18T05:37:17;102044.50;;;14.52;71.99
19508;BME280;40157;42.566;27.526;2022-12-18T05:39:18;102026.72;;;14.41;71.94
19508;BME280;40157;42.566;27.526;2022-12-18T05:41:18;102023.56;;;14.18;71.93
19508;BME280;40157;42.566;27.526;2022-12-18T05:43:20;102058.59;;;14.11;71.41
19508;BME280;40157;42.566;27.526;2022-12-18T05:45:21;102020.38;;;13.56;72.48
19508;BME280;40157;42.566;27.526;2022-12-18T05:47:22;102041.28;;;13.49;73.09
19508;BME280;40157;42.566;27.526;2022-12-18T05:49:22;101998.78;;;13.04;73.73
19508;BME280;40157;42.566;27.526;2022-12-18T05:51:23;102031.38;;;13.07;73.67
19508;BME280;40157;42.566;27.526;2022-12-18T05:53:23;102064.50;;;12.99;74.26
19508;BME280;40157;42.566;27.526;2022-12-18T05:55:24;102043.25;;;12.61;74.89
19508;BME280;40157;42.566;27.526;2022-12-18T05:57:24;102075.66;;;12.60;75.03
19508;BME280;40157;42.566;27.526;2022-12-18T05:59:25;102086.56;;;12.44;75.47
19508;BME280;40157;42.566;27.526;2022-12-18T06:01:26;102045.16;;;12.08;76.00
19508;BME280;40157;42.566;27.526;2022-12-18T06:03:26;102050.97;;;11.97;76.42
19508;BME280;40157;42.566;27.526;2022-12-18T06:05:27;102102.94;;;12.06;76.10
19508;BME280;40157;42.566;27.526;2022-12-18T06:07:28;102065.69;;;11.66;76.64
19508;BME280;40157;42.566;27.526;2022-12-18T06:09:28;102072.63;;;11.64;77.92
19508;BME280;40157;42.566;27.526;2022-12-18T06:11:29;102108.13;;;11.79;78.20
19508;BME280;40157;42.566;27.526;2022-12-18T06:13:29;102111.59;;;11.78;78.04
19508;BME280;40157;42.566;27.526;2022-12-18T06:15:30;102120.31;;;11.77;77.59
19508;BME280;40157;42.566;27.526;2022-12-18T06:17:31;102126.22;;;11.70;78.27
19508;BME280;40157;42.566;27.526;2022-12-18T06:19:32;102097.28;;;11.42;78.19
19508;BME280;40157;42.566;27.526;2022-12-18T06:21:32;102136.25;;;11.56;78.32
19508;BME280;40157;42.566;27.526;2022-12-18T06:23:33;102139.44;;;11.47;78.86
19508;BME280;40157;42.566;27.526;2022-12-18T06:25:38;102144.78;;;11.50;78.28
19508;BME280;40157;42.566;27.526;2022-12-18T06:27:39;102143.09;;;11.52;79.13
19508;BME280;40157;42.566;27.526;2022-12-18T06:29:39;102139.22;;;11.41;79.08
19508;BME280;40157;42.566;27.526;2022-12-18T06:31:40;102150.44;;;11.37;78.74
19508;BME280;40157;42.566;27.526;2022-12-18T06:33:40;102150.13;;;11.27;77.89
19508;BME280;40157;42.566;27.526;2022-12-18T06:35:41;102149.41;;;11.07;77.88
19508;BME280;40157;42.566;27.526;2022-12-18T06:37:41;102148.50;;;11.07;78.33
19508;BME280;40157;42.566;27.526;2022-12-18T06:39:43;102173.91;;;11.08;78.43
19508;BME280;40157;42.566;27.526;2022-12-18T06:41:43;102132.66;;;10.81;78.21
19508;BME280;40157;42.566;27.526;2022-12-18T06:43:45;102172.59;;;10.97;78.37
19508;BME280;40157;42.566;27.526;2022-12-18T06:45:45;102172.53;;;10.95;78.41
19508;BME280;40157;42.566;27.526;2022-12-18T06:47:50;102172.03;;;10.81;77.70
19508;BME280;40157;42.566;27.526;2022-12-18T06:49:50;102189.72;;;10.87;77.64
19508;BME280;40157;42.566;27.526;2022-12-18T06:51:50;102190.41;;;10.81;77.92
19508;BME280;40157;42.566;27.526;2022-12-18T06:53:51;102205.47;;;10.87;78.43
19508;BME280;40157;42.566;27.526;2022-12-18T06:55:51;102161.53;;;10.59;78.78
19508;BME280;40157;42.566;27.526;2022-12-18T06:57:52;102167.25;;;10.93;83.75
19508;BME280;40157;42.566;27.526;2022-12-18T06:59:52;102177.16;;;11.01;83.30
19508;BME280;40157;42.566;27.526;2022-12-18T07:01:53;102204.78;;;11.38;84.89
19508;BME280;40157;42.566;27.526;2022-12-18T07:03:55;102176.38;;;11.27;82.77
19508;BME280;40157;42.566;27.526;2022-12-18T07:05:55;102219.84;;;11.43;78.85
19508;BME280;40157;42.566;27.526;2022-12-18T07:07:56;102178.66;;;11.18;77.25
19508;BME280;40157;42.566;27.526;2022-12-18T07:09:56;102225.16;;;11.45;78.70
19508;BME280;40157;42.566;27.526;2022-12-18T07:11:57;102210.78;;;11.35;78.94
19508;BME280;40157;42.566;27.526;2022-12-18T07:13:58;102225.28;;;11.48;78.71
19508;BME280;40157;42.566;27.526;2022-12-18T07:16:15;102231.03;;;11.62;79.41
19508;BME280;40157;42.566;27.526;2022-12-18T07:18:16;102233.38;;;11.78;79.83
19508;BME280;40157;42.566;27.526;2022-12-18T07:20:16;102255.63;;;11.88;79.22
19508;BME280;40157;42.566;27.526;2022-12-18T07:22:17;102258.56;;;11.96;77.87
19508;BME280;40157;42.566;27.526;2022-12-18T07:24:17;102251.63;;;11.98;77.24
19508;BME280;40157;42.566;27.526;2022-12-18T07:26:20;102275.84;;;12.15;76.98
19508;BME280;40157;42.566;27.526;2022-12-18T07:28:20;102263.53;;;12.14;76.95
19508;BME280;40157;42.566;27.526;2022-12-18T07:30:21;102258.50;;;12.20;76.41
19508;BME280;40157;42.566;27.526;2022-12-18T07:32:21;102239.16;;;12.18;76.51
19508;BME280;40157;42.566;27.526;2022-12-18T07:34:22;102224.97;;;12.13;76.09
19508;BME280;40157;42.566;27.526;2022-12-18T07:36:22;102267.88;;;12.37;76.49
19508;BME280;40157;42.566;27.526;2022-12-18T07:38:23;102283.66;;;12.37;73.75
19508;BME280;40157;42.566;27.526;2022-12-18T07:40:23;102270.72;;;12.18;73.11
19508;BME280;40157;42.566;27.526;2022-12-18T07:42:24;102300.00;;;12.29;73.32
19508;BME280;40157;42.566;27.526;2022-12-18T07:44:33;102265.91;;;12.06;72.92
19508;BME280;40157;42.566;27.526;2022-12-18T07:46:33;102279.94;;;12.07;73.22
19508;BME280;40157;42.566;27.526;2022-12-18T07:48:34;102289.63;;;12.08;73.51
19508;BME280;40157;42.566;27.526;2022-12-18T07:50:35;102291.28;;;12.06;73.38
19508;BME280;40157;42.566;27.526;2022-12-18T07:52:38;102296.47;;;12.02;72.88
19508;BME280;40157;42.566;27.526;2022-12-18T07:54:41;102282.63;;;11.84;73.29
19508;BME280;40157;42.566;27.526;2022-12-18T07:56:42;102308.88;;;12.07;73.21
19508;BME280;40157;42.566;27.526;2022-12-18T07:58:42;102320.06;;;12.01;72.87
19508;BME280;40157;42.566;27.526;2022-12-18T08:00:44;102283.13;;;11.74;72.84
19508;BME280;40157;42.566;27.526;2022-12-18T08:02:44;102330.25;;;11.92;72.81
19508;BME280;40157;42.566;27.526;2022-12-18T08:04:45;102301.50;;;11.74;72.56
19508;BME280;40157;42.566;27.526;2022-12-18T08:06:46;102310.81;;;11.88;73.44
19508;BME280;40157;42.566;27.526;2022-12-18T08:08:46;102321.69;;;11.97;73.33
19508;BME280;40157;42.566;27.526;2022-12-18T08:10:46;102329.09;;;11.85;72.31
19508;BME280;40157;42.566;27.526;2022-12-18T08:12:51;102286.47;;;11.70;72.43
19508;BME280;40157;42.566;27.526;2022-12-18T08:14:51;102336.03;;;11.83;72.12
19508;BME280;40157;42.566;27.526;2022-12-18T08:16:52;102281.50;;;11.53;72.59
19508;BME280;40157;42.566;27.526;2022-12-18T08:18:53;102341.28;;;11.83;72.21
19508;BME280;40157;42.566;27.526;2022-12-18T08:20:55;102331.22;;;11.71;72.00
19508;BME280;40157;42.566;27.526;2022-12-18T08:22:55;102358.72;;;11.81;71.77
19508;BME280;40157;42.566;27.526;2022-12-18T08:24:58;102351.38;;;11.72;71.77
19508;BME280;40157;42.566;27.526;2022-12-18T08:26:58;102362.19;;;11.80;71.11
19508;BME280;40157;42.566;27.526;2022-12-18T08:29:00;102358.25;;;11.69;70.88
19508;BME280;40157;42.566;27.526;2022-12-18T08:31:00;102366.19;;;11.70;69.81
19508;BME280;40157;42.566;27.526;2022-12-18T08:33:01;102372.06;;;11.63;69.80
19508;BME280;40157;42.566;27.526;2022-12-18T08:35:01;102313.75;;;11.26;70.10
19508;BME280;40157;42.566;27.526;2022-12-18T08:37:02;102340.25;;;11.33;69.99
19508;BME280;40157;42.566;27.526;2022-12-18T08:39:02;102354.34;;;11.35;70.04
19508;BME280;40157;42.566;27.526;2022-12-18T08:41:05;102346.13;;;11.27;70.08
19508;BME280;40157;42.566;27.526;2022-12-18T08:43:08;102314.91;;;11.12;70.62
19508;BME280;40157;42.566;27.526;2022-12-18T08:45:27;102333.28;;;11.12;70.85
19508;BME280;40157;42.566;27.526;2022-12-18T08:47:28;102335.38;;;10.98;71.27
19508;BME280;40157;42.566;27.526;2022-12-18T08:49:29;102343.06;;;10.93;72.18
19508;BME280;40157;42.566;27.526;2022-12-18T08:51:29;102353.28;;;10.87;71.75
19508;BME280;40157;42.566;27.526;2022-12-18T08:53:30;102344.84;;;10.73;71.10
19508;BME280;40157;42.566;27.526;2022-12-18T08:55:30;102341.28;;;10.71;71.71
19508;BME280;40157;42.566;27.526;2022-12-18T08:57:30;102339.88;;;10.59;72.18
19508;BME280;40157;42.566;27.526;2022-12-18T08:59:31;102342.03;;;10.48;72.05
19508;BME280;40157;42.566;27.526;2022-12-18T09:01:31;102330.00;;;10.32;72.02
19508;BME280;40157;42.566;27.526;2022-12-18T09:03:33;102328.78;;;10.25;72.88
19508;BME280;40157;42.566;27.526;2022-12-18T09:05:33;102352.44;;;10.27;73.23
19508;BME280;40157;42.566;27.526;2022-12-18T09:07:34;102350.91;;;10.11;73.08
19508;BME280;40157;42.566;27.526;2022-12-18T09:09:35;102342.81;;;10.06;74.20
19508;BME280;40157;42.566;27.526;2022-12-18T09:11:36;102313.28;;;9.91;73.75
19508;BME280;40157;42.566;27.526;2022-12-18T09:13:37;102360.31;;;10.07;73.29
19508;BME280;40157;42.566;27.526;2022-12-18T09:15:41;102356.59;;;10.02;74.29
19508;BME280;40157;42.566;27.526;2022-12-18T09:17:42;102356.75;;;10.05;74.38
19508;BME280;40157;42.566;27.526;2022-12-18T09:19:43;102334.97;;;9.87;73.38
19508;BME280;40157;42.566;27.526;2022-12-18T09:21:44;102315.94;;;9.71;73.07
19508;BME280;40157;42.566;27.526;2022-12-18T09:23:49;102357.09;;;9.93;74.08
19508;BME280;40157;42.566;27.526;2022-12-18T09:25:49;102352.75;;;9.94;73.64
19508;BME280;40157;42.566;27.526;2022-12-18T09:27:49;102320.47;;;9.75;74.57
19508;BME280;40157;42.566;27.526;2022-12-18T09:29:50;102374.34;;;10.08;75.20
19508;BME280;40157;42.566;27.526;2022-12-18T09:31:50;102351.09;;;9.96;73.58
19508;BME280;40157;42.566;27.526;2022-12-18T09:33:51;102358.69;;;10.09;74.22
19508;BME280;40157;42.566;27.526;2022-12-18T09:35:51;102351.50;;;10.05;73.01
19508;BME280;40157;42.566;27.526;2022-12-18T09:37:53;102353.25;;;10.05;72.70
19508;BME280;40157;42.566;27.526;2022-12-18T09:39:53;102317.13;;;9.78;73.35
19508;BME280;40157;42.566;27.526;2022-12-18T09:41:55;102348.28;;;9.91;72.92
19508;BME280;40157;42.566;27.526;2022-12-18T09:44:34;102380.34;;;10.05;72.67
19508;BME280;40157;42.566;27.526;2022-12-18T09:46:29;102345.59;;;9.90;73.46
19508;BME280;40157;42.566;27.526;2022-12-18T09:48:58;102357.44;;;10.01;73.29
19508;BME280;40157;42.566;27.526;2022-12-18T09:51:03;102352.22;;;10.01;72.89
19508;BME280;40157;42.566;27.526;2022-12-18T09:53:11;102364.25;;;10.17;76.57
19508;BME280;40157;42.566;27.526;2022-12-18T09:55:28;102369.84;;;10.25;73.45
19508;BME280;40157;42.566;27.526;2022-12-18T09:57:33;102367.91;;;10.21;72.54
19508;BME280;40157;42.566;27.526;2022-12-18T09:59:37;102371.22;;;10.16;72.03
19508;BME280;40157;42.566;27.526;2022-12-18T10:01:39;102367.38;;;10.08;72.11
19508;BME280;40157;42.566;27.526;2022-12-18T10:03:40;102374.66;;;10.15;72.41
19508;BME280;40157;42.566;27.526;2022-12-18T10:07:57;102374.88;;;10.20;72.97
19508;BME280;40157;42.566;27.526;2022-12-18T10:10:04;102376.69;;;10.21;73.60
19508;BME280;40157;42.566;27.526;2022-12-18T10:16:52;102389.78;;;10.21;72.69
19508;BME280;40157;42.566;27.526;2022-12-18T10:21:18;102373.84;;;10.16;72.30
19508;BME280;40157;42.566;27.526;2022-12-18T10:23:57;102371.91;;;10.12;72.44
19508;BME280;40157;42.566;27.526;2022-12-18T10:26:10;102376.47;;;10.16;72.11
19508;BME280;40157;42.566;27.526;2022-12-18T10:28:13;102367.50;;;10.11;71.93
19508;BME280;40157;42.566;27.526;2022-12-18T10:30:16;102370.56;;;10.01;71.38
19508;BME280;40157;42.566;27.526;2022-12-18T10:32:23;102342.00;;;9.88;71.01
19508;BME280;40157;42.566;27.526;2022-12-18T10:34:25;102380.97;;;9.99;71.62
19508;BME280;40157;42.566;27.526;2022-12-18T10:36:25;102379.09;;;9.97;71.20
19508;BME280;40157;42.566;27.526;2022-12-18T10:38:28;102376.81;;;9.85;71.41
19508;BME280;40157;42.566;27.526;2022-12-18T10:40:29;102367.13;;;9.84;72.05
19508;BME280;40157;42.566;27.526;2022-12-18T10:42:30;102368.28;;;9.89;71.87
19508;BME280;40157;42.566;27.526;2022-12-18T10:44:30;102370.13;;;9.92;71.77
19508;BME280;40157;42.566;27.526;2022-12-18T10:46:31;102370.13;;;9.92;71.33
19508;BME280;40157;42.566;27.526;2022-12-18T10:48:34;102383.66;;;10.01;71.23
19508;BME280;40157;42.566;27.526;2022-12-18T10:50:37;102381.84;;;10.00;71.65
19508;BME280;40157;42.566;27.526;2022-12-18T10:52:38;102385.34;;;10.00;71.55
19508;BME280;40157;42.566;27.526;2022-12-18T10:54:38;102355.91;;;9.87;71.48
19508;BME280;40157;42.566;27.526;2022-12-18T10:56:39;102399.50;;;10.04;71.09
19508;BME280;40157;42.566;27.526;2022-12-18T10:58:39;102401.38;;;10.07;71.08
19508;BME280;40157;42.566;27.526;2022-12-18T11:00:41;102391.63;;;10.04;71.11
19508;BME280;40157;42.566;27.526;2022-12-18T11:02:41;102372.06;;;9.96;70.92
19508;BME280;40157;42.566;27.526;2022-12-18T11:04:50;102406.41;;;10.22;70.61
19508;BME280;40157;42.566;27.526;2022-12-18T11:07:07;102406.53;;;10.25;70.55
19508;BME280;40157;42.566;27.526;2022-12-18T11:09:23;102412.69;;;10.25;70.62
19508;BME280;40157;42.566;27.526;2022-12-18T11:11:24;102393.38;;;10.23;71.03